Time;durP1;ratioP1;P1;durP2;ratioP2;P2;SDS_P1;SDS_P2;PMS_P1;PMS_P2;Temp;Humidity;BMP_temperature;BMP_pressure;BME280_temperature;BME280_humidity;BME280_pressure;Samples;Min_cycle;Max_cycle;Signal;HPM_P1;HPM_P2
2023/01/27 00:01:09;;;;;;;51.78;32.47;;;5.40;99.90;;;;;;4980548;28;20061;-91
2023/01/27 00:03:36;;;;;;;52.28;33.35;;;5.40;99.90;;;;;;4996841;28;20042;-93
2023/01/27 00:06:03;;;;;;;61.13;36.15;;;5.30;99.90;;;;;;4980510;28;20058;-92
2023/01/27 00:08:30;;;;;;;61.65;38.13;;;5.30;99.90;;;;;;4980541;28;20026;-92
2023/01/27 00:13:43;;;;;;;62.67;37.15;;;5.20;99.90;;;;;;4996806;28;20034;-92
2023/01/27 00:16:10;;;;;;;50.33;32.00;;;5.10;99.90;;;;;;4980303;28;20033;-92
2023/01/27 00:18:37;;;;;;;44.25;28.85;;;5.00;99.90;;;;;;4996437;28;20046;-93
2023/01/27 00:26:34;;;;;;;44.35;29.45;;;4.80;99.90;;;;;;4996488;28;20030;-92
2023/01/27 00:29:01;;;;;;;48.28;29.95;;;4.80;99.90;;;;;;4980758;28;20507;-92
2023/01/27 00:34:13;;;;;;;53.08;34.03;;;4.80;99.90;;;;;;4995816;28;20034;-94
2023/01/27 00:36:41;;;;;;;54.53;34.30;;;4.80;99.90;;;;;;4980079;28;20472;-94
2023/01/27 00:39:10;;;;;;;56.72;37.05;;;4.80;99.90;;;;;;4979154;28;20118;-92
2023/01/27 00:41:39;;;;;;;50.30;32.08;;;4.80;99.90;;;;;;4980705;28;20022;-92
2023/01/27 00:44:11;;;;;;;45.05;30.55;;;4.80;99.90;;;;;;4979645;28;20100;-93
2023/01/27 00:46:40;;;;;;;48.97;30.38;;;4.80;99.90;;;;;;4979774;28;20080;-93
2023/01/27 00:49:09;;;;;;;44.50;30.55;;;4.70;99.90;;;;;;4979768;28;20035;-92
2023/01/27 00:51:36;;;;;;;63.83;37.92;;;4.70;99.90;;;;;;4983511;28;20368;-92
2023/01/27 00:54:03;;;;;;;45.10;30.30;;;4.60;99.90;;;;;;4986867;28;20101;-94
2023/01/27 00:56:31;;;;;;;56.45;35.13;;;4.50;99.90;;;;;;4996051;28;20391;-93
2023/01/27 00:58:58;;;;;;;57.53;34.78;;;4.50;99.90;;;;;;4979652;28;20034;-93
2023/01/27 01:01:25;;;;;;;64.75;37.55;;;4.50;99.90;;;;;;4996692;28;20129;-93
2023/01/27 01:03:52;;;;;;;45.25;30.75;;;4.40;99.90;;;;;;4983322;28;20038;-91
2023/01/27 01:06:19;;;;;;;60.67;36.67;;;4.40;99.90;;;;;;4987760;28;20035;-91
2023/01/27 01:08:48;;;;;;;59.72;36.45;;;4.40;99.90;;;;;;5002315;28;20110;-94
2023/01/27 01:11:17;;;;;;;51.60;33.58;;;4.30;99.90;;;;;;4960461;28;20495;-92
2023/01/27 01:13:44;;;;;;;52.15;33.38;;;4.40;99.90;;;;;;4991970;28;20039;-92
2023/01/27 01:16:22;;;;;;;53.83;32.55;;;4.40;99.90;;;;;;4992288;28;20491;-92
2023/01/27 01:18:49;;;;;;;48.45;30.90;;;4.50;99.90;;;;;;4995643;28;20507;-92
2023/01/27 01:21:16;;;;;;;42.92;28.75;;;4.60;99.90;;;;;;4979689;28;20048;-94
2023/01/27 01:23:44;;;;;;;50.45;32.15;;;4.50;99.90;;;;;;4978994;28;20038;-93
2023/01/27 01:26:13;;;;;;;45.63;30.45;;;4.40;99.90;;;;;;4979165;28;20109;-93
2023/01/27 01:28:40;;;;;;;54.08;33.80;;;4.30;99.90;;;;;;4979038;28;20035;-93
2023/01/27 01:31:10;;;;;;;61.08;38.70;;;4.30;99.90;;;;;;4975767;28;20026;-93
2023/01/27 01:33:37;;;;;;;59.97;35.97;;;4.40;99.90;;;;;;4959836;28;20035;-93
2023/01/27 01:36:10;;;;;;;41.95;28.30;;;4.40;99.90;;;;;;4959675;28;20058;-93
2023/01/27 01:38:37;;;;;;;51.70;32.60;;;4.40;99.90;;;;;;4960161;28;20038;-93
2023/01/27 01:41:07;;;;;;;48.45;32.33;;;4.30;99.90;;;;;;4955467;28;20035;-94
2023/01/27 01:43:34;;;;;;;65.72;38.63;;;4.40;99.90;;;;;;4963702;28;20050;-93
2023/01/27 01:46:05;;;;;;;53.63;33.17;;;4.30;99.90;;;;;;4942378;28;20026;-92
2023/01/27 01:48:47;;;;;;;47.28;31.77;;;4.40;99.90;;;;;;4942930;28;20101;-91
2023/01/27 01:51:38;;;;;;;48.45;31.70;;;4.40;99.90;;;;;;4941402;28;20046;-93
2023/01/27 01:54:16;;;;;;;53.83;30.55;;;4.40;99.90;;;;;;4926835;29;20051;-93
2023/01/27 01:56:55;;;;;;;44.13;28.92;;;4.30;99.90;;;;;;4920510;29;20128;-92
2023/01/27 01:59:59;;;;;;;44.42;30.23;;;4.20;99.90;;;;;;4920200;29;20029;-94
2023/01/27 02:02:30;;;;;;;41.00;26.85;;;4.20;99.90;;;;;;4846075;29;20143;-93
2023/01/27 02:05:03;;;;;;;50.65;32.92;;;4.20;99.90;;;;;;4868678;29;20040;-92
2023/01/27 02:08:02;;;;;;;55.92;34.85;;;4.20;99.90;;;;;;4869515;29;20021;-92
2023/01/27 02:10:29;;;;;;;60.47;37.65;;;4.10;99.90;;;;;;4869401;29;20049;-93
2023/01/27 02:12:55;;;;;;;59.13;36.58;;;4.10;99.90;;;;;;4869590;29;20030;-92
2023/01/27 02:15:22;;;;;;;58.33;36.78;;;4.10;99.90;;;;;;4878443;29;20059;-92
2023/01/27 02:17:49;;;;;;;59.30;38.45;;;4.10;99.90;;;;;;4888820;29;20049;-91
2023/01/27 02:20:34;;;;;;;62.05;39.78;;;4.20;99.90;;;;;;4882466;29;20025;-93
2023/01/27 02:23:06;;;;;;;68.90;42.25;;;4.20;99.90;;;;;;4867018;29;20064;-92
2023/01/27 02:25:54;;;;;;;53.63;35.17;;;4.20;99.90;;;;;;4867609;29;20050;-92
2023/01/27 02:28:21;;;;;;;61.70;39.35;;;4.20;99.90;;;;;;4866850;29;20032;-91
2023/01/27 02:30:48;;;;;;;43.45;30.38;;;4.10;99.90;;;;;;4866537;29;20044;-92
2023/01/27 02:33:15;;;;;;;49.30;32.03;;;4.10;99.90;;;;;;4881873;29;20043;-91
2023/01/27 02:36:02;;;;;;;59.80;39.33;;;4.00;99.90;;;;;;4881919;29;20052;-91
2023/01/27 02:38:44;;;;;;;68.57;41.95;;;4.00;99.90;;;;;;4923918;29;20555;-92
2023/01/27 02:41:34;;;;;;;56.30;36.22;;;3.90;99.90;;;;;;4923537;29;20039;-91
2023/01/27 02:44:02;;;;;;;69.28;41.60;;;3.90;99.90;;;;;;4924819;29;20040;-91
2023/01/27 02:46:28;;;;;;;67.95;42.00;;;3.90;99.90;;;;;;4931867;29;20054;-92
2023/01/27 02:48:58;;;;;;;59.22;38.67;;;3.90;99.90;;;;;;4925182;29;20121;-93
2023/01/27 02:51:28;;;;;;;80.10;48.97;;;3.90;99.90;;;;;;4923433;29;20066;-93
2023/01/27 02:53:55;;;;;;;52.72;34.95;;;3.90;99.90;;;;;;4948340;28;20137;-91
2023/01/27 02:56:25;;;;;;;50.63;34.70;;;3.90;99.90;;;;;;4958106;28;20027;-93
2023/01/27 02:58:55;;;;;;;71.43;44.80;;;3.90;99.90;;;;;;4958736;28;20035;-92
2023/01/27 03:01:31;;;;;;;71.30;43.33;;;3.90;99.90;;;;;;4960035;28;20184;-94
2023/01/27 03:04:00;;;;;;;64.50;41.15;;;3.90;99.90;;;;;;4962188;28;20043;-94
2023/01/27 03:06:28;;;;;;;77.95;47.50;;;4.00;99.90;;;;;;4962230;28;20027;-91
2023/01/27 03:09:04;;;;;;;78.43;49.42;;;4.00;99.90;;;;;;4962186;28;20523;-93
2023/01/27 03:14:17;;;;;;;65.68;41.67;;;4.00;99.90;;;;;;4978324;28;20031;-92
2023/01/27 03:19:32;;;;;;;67.82;41.92;;;4.00;99.90;;;;;;4978614;28;20031;-93
2023/01/27 03:22:02;;;;;;;72.10;41.80;;;4.00;99.90;;;;;;4970947;28;20026;-93
2023/01/27 03:24:32;;;;;;;67.45;41.50;;;4.00;99.90;;;;;;4977875;28;20039;-92
2023/01/27 03:27:04;;;;;;;66.57;42.40;;;4.10;99.90;;;;;;4962336;28;20085;-92
2023/01/27 03:29:57;;;;;;;59.67;38.70;;;4.10;99.90;;;;;;4977209;28;20101;-92
2023/01/27 03:32:28;;;;;;;62.70;39.67;;;4.10;99.90;;;;;;4962394;28;20476;-93
2023/01/27 09:08:24;;;;;;;18.98;16.52;;;10.00;99.90;;;;;;6105774;23;20046;31
2023/01/27 09:10:51;;;;;;;17.48;15.77;;;10.10;99.90;;;;;;4934731;29;20071;-90
2023/01/27 09:13:21;;;;;;;20.70;17.83;;;10.10;99.90;;;;;;4921894;29;20082;-90
2023/01/27 09:15:50;;;;;;;18.70;16.88;;;10.20;99.90;;;;;;4921298;29;20038;-93
2023/01/27 09:18:17;;;;;;;25.58;20.50;;;10.30;99.90;;;;;;4938193;29;20466;-93
2023/01/27 09:20:43;;;;;;;20.55;18.25;;;10.20;99.90;;;;;;4918299;29;20119;-91
2023/01/27 09:23:10;;;;;;;18.75;16.75;;;10.10;99.90;;;;;;4917995;29;20125;-90
2023/01/27 09:25:36;;;;;;;21.60;19.30;;;10.10;99.90;;;;;;4917919;29;20481;-91
2023/01/27 09:28:03;;;;;;;21.38;18.15;;;10.30;99.90;;;;;;4917935;29;20497;-90
2023/01/27 09:30:29;;;;;;;18.83;16.92;;;10.30;99.90;;;;;;4917799;29;20098;-94
2023/01/27 09:33:00;;;;;;;17.50;15.68;;;10.40;99.90;;;;;;4918358;29;20378;-92
2023/01/27 09:35:39;;;;;;;26.17;22.50;;;10.60;99.90;;;;;;4917690;29;20088;-90
2023/01/27 09:38:06;;;;;;;24.90;20.73;;;10.70;99.90;;;;;;4917836;29;20438;-91
2023/01/27 09:40:47;;;;;;;23.58;19.73;;;10.70;99.90;;;;;;4917661;29;20032;-91
2023/01/27 09:43:51;;;;;;;38.17;26.10;;;10.70;99.90;;;;;;4917908;29;20051;-90
2023/01/27 09:46:29;;;;;;;18.38;16.13;;;10.90;99.90;;;;;;4902036;29;20036;-91
2023/01/27 09:49:39;;;;;;;15.38;14.07;;;11.10;99.90;;;;;;4901735;29;20038;-93
2023/01/27 09:52:09;;;;;;;16.65;15.10;;;11.10;99.90;;;;;;4902134;29;20477;-92
2023/01/27 09:55:18;;;;;;;18.20;16.80;;;11.30;99.90;;;;;;4903109;29;20024;-92
2023/01/27 09:57:56;;;;;;;15.82;14.73;;;11.30;99.90;;;;;;4844267;29;20405;-92
2023/01/27 10:00:35;;;;;;;19.52;17.73;;;11.40;99.90;;;;;;4842884;29;20517;-90
2023/01/27 10:03:37;;;;;;;18.38;16.90;;;11.60;99.90;;;;;;4842551;29;20099;-94
2023/01/27 10:06:18;;;;;;;16.55;15.38;;;11.80;99.90;;;;;;4840079;29;20105;-93
2023/01/27 10:09:34;;;;;;;17.42;16.33;;;11.90;99.90;;;;;;4844300;29;20042;-91
2023/01/27 10:12:17;;;;;;;19.00;17.70;;;11.90;99.90;;;;;;4859687;29;20033;-90
2023/01/27 10:15:02;;;;;;;20.50;18.95;;;12.10;99.90;;;;;;4845105;29;20081;-92
2023/01/27 10:17:44;;;;;;;18.65;17.45;;;12.30;99.90;;;;;;4845206;29;20039;-91
2023/01/27 10:20:20;;;;;;;24.65;22.35;;;12.00;99.90;;;;;;4845005;29;20496;-92
2023/01/27 10:23:11;;;;;;;19.08;17.77;;;12.00;99.90;;;;;;4845203;29;20044;-92
2023/01/27 10:26:09;;;;;;;20.10;18.50;;;12.10;99.90;;;;;;4844957;29;20045;-91
2023/01/27 10:28:38;;;;;;;20.17;18.58;;;12.20;99.90;;;;;;4882133;29;20039;-91
2023/01/27 10:31:16;;;;;;;18.95;17.60;;;12.10;99.90;;;;;;4920016;29;20103;-91
2023/01/27 10:34:02;;;;;;;19.98;18.38;;;12.10;99.90;;;;;;4919965;29;20028;-92
2023/01/27 10:36:34;;;;;;;17.30;16.10;;;12.20;99.90;;;;;;4904626;29;20110;-93
2023/01/27 10:39:22;;;;;;;19.13;17.83;;;12.10;99.90;;;;;;4935892;29;20496;-90
2023/01/27 10:41:49;;;;;;;17.70;16.15;;;12.10;99.90;;;;;;4936067;29;20182;-92
2023/01/27 10:44:46;;;;;;;18.02;16.88;;;12.10;99.90;;;;;;4920236;29;20500;-90
2023/01/27 10:47:18;;;;;;;26.27;23.88;;;12.10;99.90;;;;;;4917066;29;20028;-91
2023/01/27 10:50:12;;;;;;;21.33;19.83;;;12.20;99.90;;;;;;4917043;29;20036;-91
2023/01/27 10:52:49;;;;;;;20.52;19.15;;;12.20;99.90;;;;;;4916797;29;20111;-90
2023/01/27 10:55:24;;;;;;;21.45;19.95;;;12.30;99.90;;;;;;4911863;29;20048;-91
2023/01/27 10:58:10;;;;;;;20.20;18.80;;;12.30;99.90;;;;;;4901446;29;20024;-93
2023/01/27 11:00:50;;;;;;;20.90;19.50;;;12.20;99.90;;;;;;4901497;29;20039;-90
2023/01/27 11:03:33;;;;;;;20.52;19.13;;;12.20;99.90;;;;;;4901698;29;20044;-93
2023/01/27 11:06:06;;;;;;;20.70;19.30;;;12.40;99.90;;;;;;4900958;29;20040;-92
2023/01/27 11:08:38;;;;;;;19.88;18.52;;;12.60;99.90;;;;;;4900849;29;20049;-90
2023/01/27 11:14:03;;;;;;;22.02;20.48;;;12.70;99.90;;;;;;4916621;29;20036;-90
2023/01/27 11:16:36;;;;;;;21.70;20.27;;;12.70;99.90;;;;;;4900862;29;20072;-92
2023/01/27 11:19:37;;;;;;;22.60;21.00;;;12.70;99.90;;;;;;4901654;29;20024;-92
2023/01/27 11:22:13;;;;;;;21.10;19.70;;;12.80;99.90;;;;;;4901649;29;20091;-92
2023/01/27 11:25:06;;;;;;;21.17;19.83;;;13.00;99.90;;;;;;4904093;29;20040;-90
2023/01/27 11:28:03;;;;;;;21.08;19.77;;;13.00;99.90;;;;;;4904562;29;20054;-89
2023/01/27 11:31:09;;;;;;;21.38;19.88;;;13.10;99.90;;;;;;4904432;29;20044;-90
2023/01/27 11:34:05;;;;;;;20.67;19.48;;;12.90;99.90;;;;;;4898119;29;20032;-91
2023/01/27 11:36:33;;;;;;;22.42;21.02;;;12.80;99.90;;;;;;4920162;29;20182;-90
2023/01/27 11:39:03;;;;;;;22.15;20.75;;;12.90;99.90;;;;;;4904143;29;20079;-92
2023/01/27 11:41:36;;;;;;;24.45;22.52;;;12.90;99.90;;;;;;4904387;29;20035;-89
2023/01/27 11:44:08;;;;;;;25.10;23.30;;;12.70;99.90;;;;;;4918537;29;20159;-89
2023/01/27 11:46:36;;;;;;;22.20;20.80;;;12.60;99.90;;;;;;4924974;29;20568;-90
2023/01/27 11:49:03;;;;;;;22.33;20.92;;;12.60;99.90;;;;;;4908784;29;20031;-91
2023/01/27 11:51:38;;;;;;;22.60;21.10;;;12.50;99.90;;;;;;4938661;29;20066;-90
2023/01/27 11:54:24;;;;;;;22.50;21.10;;;12.40;99.90;;;;;;4922871;29;20028;-92
2023/01/27 11:56:50;;;;;;;22.25;20.75;;;12.40;99.90;;;;;;4922775;29;20087;-89
2023/01/27 11:59:26;;;;;;;23.70;22.00;;;12.40;99.90;;;;;;4922916;29;20032;-91
2023/01/27 12:02:05;;;;;;;23.38;21.73;;;12.50;99.90;;;;;;4923385;29;20027;-92
2023/01/27 12:04:51;;;;;;;24.23;22.52;;;12.50;99.90;;;;;;4906905;29;20043;-90
2023/01/27 12:07:24;;;;;;;27.95;25.73;;;12.50;99.90;;;;;;4938247;29;20032;-90
2023/01/27 12:09:51;;;;;;;24.13;22.48;;;12.40;99.90;;;;;;4938384;29;20489;-91
2023/01/27 12:12:24;;;;;;;24.20;22.20;;;12.40;99.90;;;;;;4922602;29;20095;-88
2023/01/27 12:14:55;;;;;;;23.85;21.92;;;12.50;99.90;;;;;;4938132;29;20036;-90
2023/01/27 12:17:39;;;;;;;22.75;21.33;;;12.60;99.90;;;;;;4938403;29;20107;-89
2023/01/27 12:20:21;;;;;;;23.23;21.52;;;12.60;99.90;;;;;;4938560;29;20130;-90
2023/01/27 12:22:53;;;;;;;24.80;23.10;;;12.70;99.90;;;;;;4906604;29;20028;-90
2023/01/27 12:25:28;;;;;;;25.50;23.52;;;12.80;99.90;;;;;;4938749;29;20138;-91
2023/01/27 12:28:04;;;;;;;26.02;23.83;;;12.90;99.90;;;;;;4922352;29;20159;-89
2023/01/27 12:30:36;;;;;;;24.50;22.50;;;12.70;99.90;;;;;;4937912;29;20028;-88
2023/01/27 12:33:23;;;;;;;23.55;22.05;;;12.60;99.90;;;;;;4938066;29;20032;-88
2023/01/27 12:35:50;;;;;;;25.08;22.98;;;12.40;99.90;;;;;;4922233;29;20032;-91
2023/01/27 12:38:24;;;;;;;23.13;21.50;;;12.40;99.90;;;;;;4922333;29;20031;-91
2023/01/27 12:41:03;;;;;;;23.35;21.75;;;12.40;99.90;;;;;;4938183;29;20086;-90
2023/01/27 12:43:30;;;;;;;24.17;22.27;;;12.40;99.90;;;;;;4938027;29;20043;-89
2023/01/27 12:46:03;;;;;;;24.25;22.55;;;12.40;99.90;;;;;;4922129;29;20055;-89
2023/01/27 12:48:32;;;;;;;26.02;24.02;;;12.30;99.90;;;;;;4906348;29;20489;-89
2023/01/27 12:51:14;;;;;;;24.85;23.00;;;12.20;99.90;;;;;;4922017;29;20036;-90
2023/01/27 12:53:42;;;;;;;25.77;23.88;;;12.10;99.90;;;;;;4922152;29;20057;-89
2023/01/27 12:56:23;;;;;;;25.92;24.02;;;12.00;99.90;;;;;;4922331;29;20114;-89
2023/01/27 12:59:01;;;;;;;32.47;28.02;;;12.00;99.90;;;;;;4937721;29;20516;-89
2023/01/27 13:01:39;;;;;;;24.52;22.60;;;12.10;99.90;;;;;;4921973;29;20506;-89
2023/01/27 13:04:18;;;;;;;24.48;22.48;;;12.30;99.90;;;;;;4922112;29;20055;-89
2023/01/27 13:07:16;;;;;;;23.63;22.00;;;12.40;99.90;;;;;;4921466;29;20063;-89
2023/01/27 13:09:59;;;;;;;22.70;21.30;;;12.50;99.90;;;;;;4921580;29;20051;-90
2023/01/27 13:12:29;;;;;;;22.65;21.25;;;12.50;99.90;;;;;;4937396;29;20063;-92
2023/01/27 13:15:04;;;;;;;21.83;20.52;;;12.30;99.90;;;;;;4922034;29;20031;-90
2023/01/27 13:17:34;;;;;;;26.17;24.10;;;12.30;99.90;;;;;;4905774;29;20040;-91
2023/01/27 13:20:26;;;;;;;24.63;22.88;;;12.40;99.90;;;;;;4906003;29;20082;-90
2023/01/27 13:23:02;;;;;;;24.10;22.40;;;12.50;99.90;;;;;;4922095;29;20032;-91
2023/01/27 13:25:38;;;;;;;22.10;20.77;;;12.70;99.90;;;;;;4937137;29;20035;-91
2023/01/27 13:28:07;;;;;;;21.63;20.23;;;12.60;99.90;;;;;;4921443;29;20547;-91
2023/01/27 13:30:39;;;;;;;21.50;20.20;;;12.90;99.90;;;;;;4921583;29;20544;-89
2023/01/27 13:33:36;;;;;;;21.30;19.83;;;13.00;99.90;;;;;;4921939;29;20477;-91
2023/01/27 13:36:29;;;;;;;20.55;19.15;;;13.00;99.90;;;;;;4920447;29;20032;-89
2023/01/27 13:39:22;;;;;;;19.55;18.25;;;13.30;99.90;;;;;;4922363;29;20027;-90
2023/01/27 13:42:20;;;;;;;19.13;17.55;;;13.60;99.90;;;;;;4922445;29;20031;-91
2023/01/27 13:45:02;;;;;;;18.23;17.13;;;13.60;99.90;;;;;;4847813;29;20709;-91
2023/01/27 13:48:00;;;;;;;18.58;17.17;;;13.80;99.90;;;;;;4846521;29;20495;-92
2023/01/27 13:50:38;;;;;;;18.88;17.45;;;13.80;99.90;;;;;;4845981;29;20133;-93
2023/01/27 13:53:08;;;;;;;20.98;19.27;;;13.80;99.90;;;;;;4861024;29;20037;-92
2023/01/27 13:56:02;;;;;;;17.60;16.60;;;14.00;99.90;;;;;;4861174;29;20491;-91
2023/01/27 13:58:40;;;;;;;17.77;16.70;;;14.10;99.90;;;;;;4845584;29;20422;-89
2023/01/27 14:01:28;;;;;;;16.52;15.55;;;14.10;99.90;;;;;;4860849;29;20025;-91
2023/01/27 14:04:13;;;;;;;17.70;16.60;;;14.00;99.90;;;;;;4845310;29;20045;-92
2023/01/27 14:06:54;;;;;;;19.38;18.08;;;14.10;99.90;;;;;;4845305;29;20125;-91
2023/01/27 14:09:42;;;;;;;19.48;18.13;;;14.20;99.90;;;;;;4860644;29;20635;-93
2023/01/27 14:12:45;;;;;;;19.63;18.08;;;14.10;99.90;;;;;;4845467;29;20042;-91
2023/01/27 14:15:48;;;;;;;18.52;17.42;;;14.10;99.90;;;;;;4860832;29;20041;-91
2023/01/27 14:18:44;;;;;;;19.08;17.85;;;13.80;99.90;;;;;;4861047;29;20044;-91
2023/01/27 14:21:13;;;;;;;20.40;19.00;;;13.90;99.90;;;;;;4848980;29;20040;-90
2023/01/27 14:24:02;;;;;;;20.85;19.10;;;13.80;99.90;;;;;;4901613;29;20043;-91
2023/01/27 14:26:52;;;;;;;20.20;18.67;;;13.90;99.90;;;;;;4901728;29;20036;-90
2023/01/27 14:29:36;;;;;;;19.42;18.15;;;13.90;99.90;;;;;;4888846;29;20033;-91
2023/01/27 14:32:36;;;;;;;19.60;18.30;;;13.90;99.90;;;;;;4902059;29;20036;-91
2023/01/27 14:35:11;;;;;;;19.27;18.02;;;13.70;99.90;;;;;;4882640;29;20380;-92
2023/01/27 14:38:02;;;;;;;19.13;18.02;;;13.60;99.90;;;;;;4886298;29;20060;-92
2023/01/27 14:40:34;;;;;;;18.98;17.77;;;13.40;99.90;;;;;;4902000;29;20032;-90
2023/01/27 14:43:28;;;;;;;19.80;18.52;;;13.20;99.90;;;;;;4901539;29;20028;-92
2023/01/27 14:46:11;;;;;;;20.40;19.05;;;13.10;99.90;;;;;;4901747;29;20123;-92
2023/01/27 14:48:50;;;;;;;19.90;18.50;;;13.00;99.90;;;;;;4902458;29;20090;-92
2023/01/27 14:51:42;;;;;;;20.08;18.55;;;13.10;99.90;;;;;;4901537;29;20083;-91
2023/01/27 14:54:26;;;;;;;19.35;18.05;;;13.00;99.90;;;;;;4901507;29;20035;-92
2023/01/27 14:57:02;;;;;;;20.27;18.98;;;12.80;99.90;;;;;;4901187;29;20032;-91
2023/01/27 14:59:49;;;;;;;20.83;19.50;;;12.70;99.90;;;;;;4889366;29;20064;-93
2023/01/27 15:02:36;;;;;;;20.95;19.30;;;12.70;99.90;;;;;;4904720;29;20059;-93
2023/01/27 15:05:10;;;;;;;22.02;20.42;;;12.80;99.90;;;;;;4904735;29;20135;-90
2023/01/27 15:07:47;;;;;;;20.13;18.73;;;12.80;99.90;;;;;;4905053;29;20028;-90
2023/01/27 15:10:24;;;;;;;19.77;18.48;;;12.80;99.90;;;;;;4904583;29;20513;-89
2023/01/27 15:13:42;;;;;;;21.73;20.13;;;12.70;99.90;;;;;;4904880;29;20028;-93
2023/01/27 15:16:23;;;;;;;23.95;21.85;;;12.60;99.90;;;;;;4869466;29;20131;-89
2023/01/27 15:19:15;;;;;;;23.13;21.35;;;12.50;99.90;;;;;;4904460;29;20028;-90
2023/01/27 15:22:19;;;;;;;22.80;21.20;;;12.20;99.90;;;;;;4888982;29;20035;-89
2023/01/27 15:25:04;;;;;;;24.38;22.52;;;11.90;99.90;;;;;;4920516;29;20075;-89
2023/01/27 15:27:33;;;;;;;24.20;22.40;;;11.70;99.90;;;;;;4890708;29;20032;-88
2023/01/27 15:30:28;;;;;;;24.05;22.25;;;11.50;99.90;;;;;;4905269;29;20044;-89
2023/01/27 15:32:58;;;;;;;25.38;23.27;;;11.30;99.90;;;;;;4811252;29;20129;-89
2023/01/27 15:35:28;;;;;;;25.35;23.15;;;11.20;99.90;;;;;;4826293;29;20038;-91
2023/01/27 15:38:07;;;;;;;24.40;22.27;;;11.20;99.90;;;;;;4811353;29;20047;-89
2023/01/27 15:41:06;;;;;;;22.70;21.00;;;11.20;99.90;;;;;;4826147;29;20064;-90
2023/01/27 15:43:38;;;;;;;23.17;21.48;;;11.30;99.90;;;;;;4822373;29;20066;-90
2023/01/27 15:46:26;;;;;;;21.50;19.95;;;11.30;99.90;;;;;;4826848;29;20487;-90
2023/01/27 15:48:56;;;;;;;21.35;19.83;;;11.30;99.90;;;;;;4826087;29;20423;-90
2023/01/27 15:51:23;;;;;;;21.50;19.90;;;11.20;99.90;;;;;;4826030;29;20566;-89
2023/01/27 15:53:55;;;;;;;21.88;20.17;;;11.10;99.90;;;;;;4826040;29;20039;-89
2023/01/27 15:56:45;;;;;;;21.40;19.80;;;11.10;99.90;;;;;;4825784;29;20137;-89
2023/01/27 15:59:21;;;;;;;21.70;20.10;;;10.90;99.90;;;;;;4825785;29;20041;-91
2023/01/27 16:01:58;;;;;;;21.52;19.88;;;10.80;99.90;;;;;;4826178;29;20528;-90
2023/01/27 16:04:28;;;;;;;20.55;19.00;;;10.70;99.90;;;;;;4826054;29;20059;-91
2023/01/27 16:07:01;;;;;;;20.27;18.88;;;10.60;99.90;;;;;;4825636;29;20034;-91
2023/01/27 16:09:41;;;;;;;20.42;19.00;;;10.50;99.90;;;;;;4853799;29;20040;-91
2023/01/27 16:12:23;;;;;;;22.10;20.23;;;10.50;99.90;;;;;;4919250;29;20115;-90
2023/01/27 16:15:28;;;;;;;22.20;20.13;;;10.40;99.90;;;;;;4903645;29;20035;-91
2023/01/27 16:17:59;;;;;;;21.85;20.20;;;10.30;99.90;;;;;;4903593;29;20042;-90
2023/01/27 16:20:48;;;;;;;24.73;22.33;;;10.30;99.90;;;;;;4904051;29;20119;-92
2023/01/27 16:23:34;;;;;;;25.23;22.67;;;10.20;99.90;;;;;;4903545;29;20047;-89
2023/01/27 16:26:26;;;;;;;24.55;22.05;;;10.10;99.90;;;;;;4903105;29;20094;-91
2023/01/27 16:29:18;;;;;;;24.48;21.90;;;10.00;99.90;;;;;;4903363;29;20072;-90
2023/01/27 16:31:51;;;;;;;25.63;23.05;;;10.00;99.90;;;;;;4903176;29;20032;-89
2023/01/27 16:34:25;;;;;;;26.10;23.30;;;9.90;99.90;;;;;;4903241;29;20035;-91
2023/01/27 16:37:14;;;;;;;;;;;9.80;99.90;;;;;;4903750;29;20484;-88
2023/01/27 16:39:52;;;;;;;31.35;26.38;;;9.70;99.90;;;;;;4887729;29;19911;-89
2023/01/27 16:42:28;;;;;;;26.25;23.48;;;9.60;99.90;;;;;;4891713;29;20066;-89
2023/01/27 16:44:57;;;;;;;25.88;23.25;;;9.50;99.90;;;;;;4921811;29;20036;-89
2023/01/27 16:47:52;;;;;;;25.85;23.17;;;9.50;99.90;;;;;;4921906;29;20028;-89
2023/01/27 16:50:38;;;;;;;27.10;24.27;;;9.50;99.90;;;;;;4921878;29;20074;-90
2023/01/27 16:53:13;;;;;;;26.23;23.42;;;9.50;99.90;;;;;;4921535;29;20123;-88
2023/01/27 16:55:40;;;;;;;27.35;24.13;;;9.40;99.90;;;;;;4921598;29;20035;-89
2023/01/27 16:58:26;;;;;;;27.77;24.75;;;9.30;99.90;;;;;;4921910;29;20023;-89
2023/01/27 17:00:58;;;;;;;31.98;25.45;;;9.20;99.90;;;;;;4887229;29;20028;-89
2023/01/27 17:03:37;;;;;;;25.98;23.42;;;9.10;99.90;;;;;;4886996;29;20055;-87
2023/01/27 17:06:08;;;;;;;31.35;25.02;;;9.00;99.90;;;;;;4902447;29;20036;-92
2023/01/27 17:08:44;;;;;;;30.35;25.52;;;8.90;99.90;;;;;;4886926;29;20094;-92
2023/01/27 17:11:31;;;;;;;28.40;24.48;;;8.70;99.90;;;;;;4886741;29;20035;-90
2023/01/27 17:14:02;;;;;;;30.13;26.17;;;8.60;99.90;;;;;;4902498;29;20028;-89
2023/01/27 17:16:40;;;;;;;34.92;26.50;;;8.50;99.90;;;;;;4887008;29;20086;-90
2023/01/27 17:19:22;;;;;;;34.17;27.92;;;8.30;99.90;;;;;;4889023;29;20481;-90
2023/01/27 17:22:08;;;;;;;33.67;27.35;;;8.20;99.90;;;;;;4886534;29;20039;-91
2023/01/27 17:25:05;;;;;;;37.22;28.85;;;8.10;99.90;;;;;;4886506;29;20116;-90
2023/01/27 17:27:36;;;;;;;39.05;29.25;;;8.00;99.90;;;;;;4934419;29;20083;-90
2023/01/27 17:30:26;;;;;;;31.80;26.83;;;7.90;99.90;;;;;;4921190;29;20062;-90
2023/01/27 17:33:00;;;;;;;34.85;27.30;;;7.90;99.90;;;;;;4920953;29;20036;-88
2023/01/27 17:35:48;;;;;;;;;;;7.80;99.90;;;;;;4905443;29;20035;-88
2023/01/27 17:38:41;;;;;;;32.85;25.23;;;7.80;99.90;;;;;;4906067;29;19961;-91
2023/01/27 17:41:26;;;;;;;30.88;24.73;;;7.70;99.90;;;;;;4937284;29;20028;-90
2023/01/27 17:44:00;;;;;;;35.58;28.33;;;7.70;99.90;;;;;;4905567;29;20138;-90
2023/01/27 17:46:37;;;;;;;36.38;28.02;;;7.60;99.90;;;;;;4936811;29;20062;-88
2023/01/27 17:49:17;;;;;;;33.88;27.63;;;7.50;99.90;;;;;;4921077;29;20038;-88
2023/01/27 17:51:56;;;;;;;37.25;28.77;;;7.50;99.90;;;;;;4920764;29;20059;-90
2023/01/27 17:54:36;;;;;;;47.53;34.08;;;7.40;99.90;;;;;;4920944;29;20024;-90
2023/01/27 17:57:22;;;;;;;49.60;33.40;;;7.30;99.90;;;;;;4905231;29;20449;-89
2023/01/27 18:00:00;;;;;;;66.93;43.60;;;7.20;99.90;;;;;;4905379;29;20032;-88
2023/01/27 18:02:41;;;;;;;63.35;44.67;;;7.20;99.90;;;;;;4921063;29;20032;-89
2023/01/27 18:05:17;;;;;;;68.20;44.60;;;7.20;99.90;;;;;;4920723;29;20122;-88
2023/01/27 18:07:44;;;;;;;68.50;42.83;;;7.30;99.90;;;;;;4921287;29;20074;-88
2023/01/27 18:10:34;;;;;;;62.45;41.67;;;7.20;99.90;;;;;;4902119;29;20051;-87
2023/01/27 18:13:13;;;;;;;62.40;42.97;;;7.20;99.90;;;;;;4901714;29;20036;-90
2023/01/27 18:15:41;;;;;;;54.67;39.17;;;7.20;99.90;;;;;;4901541;29;20050;-89
2023/01/27 18:18:28;;;;;;;55.78;41.75;;;7.10;99.90;;;;;;4902452;29;20084;-88
2023/01/27 18:21:13;;;;;;;48.72;34.17;;;7.10;99.90;;;;;;4917845;29;20088;-90
2023/01/27 18:23:49;;;;;;;45.40;32.75;;;7.00;99.90;;;;;;4917720;29;20032;-88
2023/01/27 18:26:38;;;;;;;44.33;31.33;;;7.00;99.90;;;;;;4917659;29;20108;-88
2023/01/27 18:29:21;;;;;;;41.00;31.85;;;6.90;99.90;;;;;;4917445;29;20031;-91
2023/01/27 18:31:54;;;;;;;39.50;30.00;;;6.80;99.90;;;;;;4916771;29;20048;-88
2023/01/27 18:34:24;;;;;;;39.10;31.60;;;6.80;99.90;;;;;;4901562;29;20056;-88
2023/01/27 18:37:02;;;;;;;41.67;32.17;;;6.60;99.90;;;;;;4917396;29;20032;-89
2023/01/27 18:39:36;;;;;;;48.35;34.30;;;6.60;99.90;;;;;;4917027;29;20039;-89
2023/01/27 18:42:14;;;;;;;49.25;34.92;;;6.60;99.90;;;;;;4917429;29;20037;-87
2023/01/27 18:44:41;;;;;;;54.85;36.60;;;6.50;99.90;;;;;;4901869;29;20058;-87
2023/01/27 18:47:17;;;;;;;49.63;36.45;;;6.50;99.90;;;;;;4901339;29;20028;-88
2023/01/27 18:50:06;;;;;;;50.70;34.58;;;6.50;99.90;;;;;;4917037;29;20052;-89
2023/01/27 18:52:33;;;;;;;48.88;35.78;;;6.40;99.90;;;;;;4917192;29;20032;-88
2023/01/27 18:55:19;;;;;;;49.17;37.60;;;6.40;99.90;;;;;;4901148;29;20032;-88
2023/01/27 18:57:49;;;;;;;65.05;43.65;;;6.30;99.90;;;;;;4901399;29;20043;-87
2023/01/27 19:00:19;;;;;;;59.97;42.17;;;6.40;99.90;;;;;;4902081;29;20099;-89
2023/01/27 19:02:49;;;;;;;68.50;42.65;;;6.50;99.90;;;;;;4900927;29;20569;-90
2023/01/27 19:05:33;;;;;;;70.63;47.08;;;6.60;99.90;;;;;;4900925;29;20064;-87
2023/01/27 19:08:01;;;;;;;68.80;43.13;;;6.50;99.90;;;;;;4901070;29;20032;-89
2023/01/27 19:10:33;;;;;;;66.93;42.78;;;6.50;99.90;;;;;;4900680;29;20056;-88
2023/01/27 19:13:04;;;;;;;73.22;47.40;;;6.50;99.90;;;;;;4900902;29;20032;-91
2023/01/27 19:15:34;;;;;;;69.35;47.13;;;6.60;99.90;;;;;;4900925;29;20032;-90
2023/01/27 19:18:26;;;;;;;72.53;47.50;;;6.70;99.90;;;;;;4901044;29;20502;-90
2023/01/27 19:20:53;;;;;;;59.90;43.33;;;6.60;99.90;;;;;;4889692;29;20040;-89